Time;durP1;ratioP1;P1;durP2;ratioP2;P2;SDS_P1;SDS_P2;PMS_P1;PMS_P2;Temp;Humidity;BMP_temperature;BMP_pressure;BME280_temperature;BME280_humidity;BME280_pressure;Samples;Min_cycle;Max_cycle;Signal;HPM_P1;HPM_P2
2022/09/05 00:02:41;;;;;;;4.00;3.13;;;;;;;18.15;100.00;100875.25;4824733;29;20202;-80
2022/09/05 00:05:21;;;;;;;3.72;2.83;;;;;;;18.30;100.00;100904.94;4839666;29;20238;-78
2022/09/05 00:07:57;;;;;;;3.40;2.85;;;;;;;18.27;100.00;100894.44;4840109;29;20226;-74
2022/09/05 00:10:34;;;;;;;3.15;2.95;;;;;;;18.27;100.00;100886.56;4840428;29;20245;-73
2022/09/05 00:13:03;;;;;;;3.35;3.08;;;;;;;18.19;100.00;100896.22;4839772;29;20720;-78
2022/09/05 00:15:39;;;;;;;3.42;2.92;;;;;;;18.16;100.00;100900.59;4846868;29;21273;-80
2022/09/05 00:18:24;;;;;;;3.10;2.90;;;;;;;18.02;100.00;100887.50;4877079;29;20280;-80
2022/09/05 00:21:00;;;;;;;5.90;3.40;;;;;;;17.95;100.00;100898.91;4914745;29;20203;-79
2022/09/05 00:23:40;;;;;;;4.30;2.97;;;;;;;18.02;100.00;100898.00;4914216;29;20208;-79
2022/09/05 00:26:24;;;;;;;6.10;4.10;;;;;;;18.06;100.00;100894.50;4933333;29;20922;-80
2022/09/05 00:28:57;;;;;;;3.42;3.20;;;;;;;18.07;100.00;100882.25;4919115;29;20223;-80
2022/09/05 00:31:47;;;;;;;4.60;3.15;;;;;;;18.09;100.00;100894.50;4917497;29;20203;-80
2022/09/05 00:34:29;;;;;;;3.40;3.15;;;;;;;17.84;100.00;100862.19;4965360;28;20229;-79
2022/09/05 00:36:56;;;;;;;3.13;2.92;;;;;;;17.78;100.00;100877.94;4994112;28;20205;-79
2022/09/05 00:39:28;;;;;;;5.63;3.60;;;;;;;17.91;100.00;100897.16;4993421;28;20209;-79
2022/09/05 00:41:59;;;;;;;8.50;3.88;;;;;;;17.92;100.00;100883.16;4993140;28;20216;-79
2022/09/05 00:44:30;;;;;;;4.03;3.72;;;;;;;17.73;100.00;100852.59;4993469;28;20619;-80
2022/09/05 00:47:06;;;;;;;7.20;3.95;;;;;;;17.99;100.00;100889.28;4993688;28;20233;-80
2022/09/05 00:49:42;;;;;;;4.22;3.78;;;;;;;18.01;100.00;100883.16;4993429;28;20201;-80
2022/09/05 00:52:14;;;;;;;5.70;3.80;;;;;;;17.98;100.00;100885.78;4993524;28;20212;-79
2022/09/05 00:55:02;;;;;;;9.98;4.13;;;;;;;17.95;100.00;100869.16;4994929;28;20213;-79
2022/09/05 00:57:49;;;;;;;9.77;4.30;;;;;;;18.12;100.00;100889.22;4981237;28;20202;-80
2022/09/05 01:00:17;;;;;;;6.53;4.10;;;;;;;18.14;100.00;100899.75;4981153;28;20206;-79
2022/09/05 01:03:26;;;;;;;4.55;4.15;;;;;;;18.28;100.00;100895.31;4982343;28;20204;-80
2022/09/05 01:06:17;;;;;;;4.15;3.83;;;;;;;18.32;100.00;100886.56;4979774;28;20222;-79
2022/09/05 01:09:01;;;;;;;4.30;3.90;;;;;;;18.31;100.00;100875.19;4990613;28;20654;-79
2022/09/05 01:11:39;;;;;;;5.05;4.10;;;;;;;18.24;100.00;100878.72;4977210;28;20220;-79
2022/09/05 01:14:16;;;;;;;5.63;4.05;;;;;;;18.36;100.00;100890.03;4992573;28;20193;-79
2022/09/05 01:17:05;;;;;;;4.75;4.25;;;;;;;18.33;100.00;100886.53;4957003;28;20205;-79
2022/09/05 01:19:46;;;;;;;9.48;4.10;;;;;;;18.30;100.00;100885.66;4992950;28;20201;-78
2022/09/05 01:22:38;;;;;;;4.82;4.07;;;;;;;18.29;100.00;100882.19;4973473;28;20210;-79
2022/09/05 01:25:27;;;;;;;8.02;4.35;;;;;;;18.21;100.00;100889.22;4990232;28;20230;-79
2022/09/05 01:28:00;;;;;;;5.47;3.67;;;;;;;18.10;100.00;100891.00;4992397;28;20208;-79
2022/09/05 01:30:34;;;;;;;6.90;3.95;;;;;;;18.10;100.00;100884.88;4955095;28;20202;-78
2022/09/05 01:33:16;;;;;;;9.50;3.72;;;;;;;18.08;100.00;100873.53;4989427;28;20677;-79
2022/09/05 01:36:21;;;;;;;7.07;3.80;;;;;;;17.94;100.00;100863.06;4992711;28;20205;-78
2022/09/05 01:38:59;;;;;;;4.30;3.90;;;;;;;17.90;100.00;100869.19;4992447;28;20201;-79
2022/09/05 01:41:33;;;;;;;4.88;4.03;;;;;;;17.79;100.00;100876.22;4992823;28;20212;-79
2022/09/05 01:44:37;;;;;;;3.88;3.60;;;;;;;17.77;100.00;100864.81;4992438;28;20197;-79
2022/09/05 01:47:15;;;;;;;6.57;4.05;;;;;;;17.44;100.00;100833.38;4934493;29;20195;-79
2022/09/05 01:50:12;;;;;;;4.85;4.40;;;;;;;17.62;100.00;100863.09;4951545;29;20203;-79
2022/09/05 01:52:51;;;;;;;3.83;3.63;;;;;;;17.65;100.00;100857.00;4913185;29;20216;-78
2022/09/05 01:55:32;;;;;;;5.07;4.13;;;;;;;17.67;100.00;100866.59;4913090;29;20212;-80
2022/09/05 01:58:12;;;;;;;7.57;4.32;;;;;;;17.81;100.00;100861.31;4912690;29;20200;-79
2022/09/05 02:00:50;;;;;;;5.97;3.40;;;;;;;17.85;100.00;100865.69;4913098;29;20632;-79
2022/09/05 02:03:28;;;;;;;5.65;3.75;;;;;;;17.78;100.00;100858.72;4912761;29;20204;-80
2022/09/05 02:06:27;;;;;;;5.32;4.10;;;;;;;17.77;100.00;100859.56;4912921;29;20220;-79
2022/09/05 02:09:10;;;;;;;4.28;3.92;;;;;;;17.58;100.00;100831.66;4910691;29;20235;-79
2022/09/05 02:11:40;;;;;;;6.25;4.45;;;;;;;17.56;100.00;100850.00;4946513;28;20213;-79
2022/09/05 02:14:20;;;;;;;7.68;4.55;;;;;;;17.47;100.00;100834.25;4950795;28;20680;-78
2022/09/05 02:16:49;;;;;;;8.77;4.90;;;;;;;17.59;100.00;100844.75;4950782;28;20210;-78
2022/09/05 02:19:23;;;;;;;9.38;4.60;;;;;;;17.61;100.00;100844.75;4936956;29;20280;-79
2022/09/05 02:22:01;;;;;;;7.47;4.53;;;;;;;17.72;100.00;100862.22;4956583;28;20216;-79
2022/09/05 02:24:36;;;;;;;14.10;4.15;;;;;;;17.68;100.00;100847.38;4991864;28;20206;-79
2022/09/05 02:27:17;;;;;;;6.93;4.18;;;;;;;17.48;100.00;100814.16;4991235;28;20236;-79
2022/09/05 02:29:49;;;;;;;5.75;4.65;;;;;;;17.70;100.00;100852.59;4991756;28;20205;-79
2022/09/05 02:32:23;;;;;;;4.70;4.30;;;;;;;17.69;100.00;100861.38;4991955;28;20205;-79
2022/09/05 02:34:58;;;;;;;6.65;4.35;;;;;;;17.70;100.00;100858.72;4991982;28;20197;-78
2022/09/05 02:37:35;;;;;;;6.72;4.25;;;;;;;17.68;100.00;100860.50;4991060;28;20204;-78
2022/09/05 02:40:11;;;;;;;4.90;4.03;;;;;;;17.70;100.00;100842.09;4991866;28;20271;-78
2022/09/05 02:42:48;;;;;;;5.28;4.25;;;;;;;17.71;100.00;100864.84;4991643;28;20212;-79
2022/09/05 02:45:28;;;;;;;8.73;4.50;;;;;;;17.66;100.00;100850.84;4991620;28;20225;-78
2022/09/05 02:48:08;;;;;;;5.05;4.55;;;;;;;17.58;100.00;100843.03;4991539;28;20208;-79
2022/09/05 02:50:46;;;;;;;4.88;3.95;;;;;;;17.51;100.00;100829.88;4956784;28;20196;-79
2022/09/05 02:53:17;;;;;;;6.15;4.45;;;;;;;17.62;100.00;100855.22;4991636;28;20208;-78
2022/09/05 02:56:04;;;;;;;3.95;3.55;;;;;;;17.65;100.00;100849.13;4991160;28;20213;-79
2022/09/05 02:58:44;;;;;;;6.50;4.43;;;;;;;17.59;100.00;100862.22;4956403;28;20201;-78
2022/09/05 03:01:16;;;;;;;4.93;4.50;;;;;;;17.49;100.00;100857.84;4991092;28;20658;-78
2022/09/05 03:03:51;;;;;;;5.15;4.65;;;;;;;17.55;100.00;100863.09;4990876;28;20653;-78
2022/09/05 03:06:32;;;;;;;9.75;4.70;;;;;;;17.57;100.00;100857.00;4991365;28;20232;-78
2022/09/05 03:09:12;;;;;;;6.50;4.55;;;;;;;17.54;100.00;100858.72;4991025;28;20237;-77
2022/09/05 03:12:28;;;;;;;9.52;4.63;;;;;;;17.61;100.00;100863.13;4990948;28;20205;-77
2022/09/05 03:15:34;;;;;;;7.25;4.60;;;;;;;17.60;100.00;100864.84;4990107;28;20673;-79
2022/09/05 03:18:43;;;;;;;12.02;4.95;;;;;;;17.55;100.00;100863.09;4991212;28;20633;-79
2022/09/05 03:21:51;;;;;;;8.32;5.00;;;;;;;17.56;100.00;100864.81;4912155;29;20192;-79
2022/09/05 03:24:51;;;;;;;8.43;4.82;;;;;;;17.62;100.00;100862.25;4855954;29;20221;-78
2022/09/05 03:27:53;;;;;;;6.65;5.03;;;;;;;17.51;100.00;100863.97;4856013;29;20222;-79
2022/09/05 03:30:21;;;;;;;6.07;5.47;;;;;;;17.43;100.00;100857.84;4817819;29;20203;-78
2022/09/05 03:33:21;;;;;;;5.75;4.50;;;;;;;17.47;100.00;100865.72;4819126;29;20612;-79
2022/09/05 03:36:33;;;;;;;7.10;5.15;;;;;;;17.35;100.00;100861.34;4792954;29;20199;-77
2022/09/05 03:39:35;;;;;;;10.40;5.35;;;;;;;17.28;100.00;100861.34;4819205;29;20207;-78
2022/09/05 03:42:27;;;;;;;5.72;4.55;;;;;;;17.26;100.00;100870.97;4720119;30;20257;-79
2022/09/05 03:45:07;;;;;;;4.50;4.20;;;;;;;17.35;100.00;100882.31;4713971;30;20236;-79
2022/09/05 03:47:55;;;;;;;7.20;4.88;;;;;;;17.34;100.00;100867.44;4724583;30;20350;-80
2022/09/05 03:50:46;;;;;;;8.10;5.35;;;;;;;17.45;100.00;100887.53;4719666;30;20224;-79
2022/09/05 03:53:41;;;;;;;6.82;4.68;;;;;;;17.44;100.00;100896.31;4695076;30;20635;-80
2022/09/05 03:56:47;;;;;;;12.98;4.97;;;;;;;17.42;100.00;100901.53;4663344;30;20216;-79
2022/09/05 04:00:01;;;;;;;5.65;5.15;;;;;;;17.45;100.00;100898.03;4765192;30;20209;-80
2022/09/05 04:02:32;;;;;;;8.55;4.82;;;;;;;17.30;100.00;100881.44;4799605;29;20290;-79
2022/09/05 04:05:05;;;;;;;7.63;5.05;;;;;;;17.52;100.00;100905.91;4826187;29;20210;-79
2022/09/05 04:07:39;;;;;;;7.30;4.80;;;;;;;17.48;100.00;100913.81;4847170;29;20246;-78
2022/09/05 04:10:20;;;;;;;12.55;5.07;;;;;;;17.49;100.00;100918.16;4858192;29;20363;-79
2022/09/05 04:12:52;;;;;;;6.60;4.15;;;;;;;17.41;100.00;100891.06;4828091;29;20214;-78
2022/09/05 04:15:30;;;;;;;10.32;5.28;;;;;;;17.54;100.00;100900.69;4858105;29;20207;-79
2022/09/05 04:18:01;;;;;;;16.20;5.70;;;;;;;17.82;100.00;100920.78;4860661;29;20225;-78
2022/09/05 04:20:37;;;;;;;9.23;5.38;;;;;;;18.11;100.00;100898.00;4914553;29;20204;-79
2022/09/05 04:23:15;;;;;;;6.25;4.80;;;;;;;18.79;100.00;100928.41;4914489;29;20204;-79
2022/09/05 04:25:53;;;;;;;5.70;4.55;;;;;;;19.19;100.00;100932.56;4914024;29;20235;-79
2022/09/05 04:28:37;;;;;;;5.65;4.82;;;;;;;19.43;100.00;100941.19;4914463;29;20204;-79
2022/09/05 04:31:16;;;;;;;5.22;4.50;;;;;;;19.77;100.00;100947.94;4981295;28;20673;-78
2022/09/05 04:33:52;;;;;;;8.55;5.25;;;;;;;19.94;100.00;100947.81;4993735;28;20669;-79
2022/09/05 04:36:23;;;;;;;8.30;4.90;;;;;;;20.28;100.00;100968.53;4959205;28;20216;-79
2022/09/05 04:39:08;;;;;;;4.78;4.28;;;;;;;20.77;100.00;100989.06;4975355;28;20226;-81
2022/09/05 04:41:40;;;;;;;7.13;3.88;;;;;;;21.15;100.00;100997.38;4992709;28;20209;-81
2022/09/05 04:44:13;;;;;;;10.38;4.95;;;;;;;21.77;100.00;100998.22;4991857;28;20201;-81
2022/09/05 04:46:44;;;;;;;5.90;4.35;;;;;;;22.34;100.00;100995.50;4992095;28;20224;-83
2022/09/05 04:49:16;;;;;;;5.50;4.40;;;;;;;22.79;100.00;101009.66;4992117;28;20198;-73
2022/09/05 04:52:14;;;;;;;5.40;3.58;;;;;;;23.00;100.00;101015.38;4993052;28;20201;-83
2022/09/05 04:54:45;;;;;;;7.60;4.10;;;;;;;22.96;99.46;100974.00;4951767;29;20203;-80
2022/09/05 04:57:19;;;;;;;5.75;3.70;;;;;;;23.41;98.69;100980.06;4952184;28;20234;-77
2022/09/05 04:59:53;;;;;;;3.53;3.25;;;;;;;23.25;95.97;100957.50;4950739;28;20217;-80
2022/09/05 05:02:32;;;;;;;6.93;3.67;;;;;;;23.43;93.55;101025.06;4951512;28;20214;-80
2022/09/05 05:05:01;;;;;;;12.45;4.25;;;;;;;23.52;92.18;100986.00;4951364;28;20344;-79
2022/09/05 05:07:40;;;;;;;23.67;12.20;;;;;;;23.81;91.09;101026.78;4903737;29;20246;-79
2022/09/05 05:10:15;;;;;;;5.18;4.10;;;;;;;23.86;91.33;101028.44;4952125;28;20269;-78
2022/09/05 05:12:56;;;;;;;12.77;4.35;;;;;;;23.95;91.45;101020.25;4951808;28;20206;-79
2022/09/05 05:15:27;;;;;;;11.10;4.75;;;;;;;24.33;90.41;101027.25;4951981;28;20207;-78
2022/09/05 05:18:02;;;;;;;12.70;4.80;;;;;;;24.00;89.83;101028.97;4952030;28;20218;-78
2022/09/05 05:20:36;;;;;;;7.28;4.35;;;;;;;23.80;91.25;101033.00;4950715;28;20690;-79
2022/09/05 05:23:06;;;;;;;6.35;4.18;;;;;;;23.74;91.76;101036.66;4951989;28;20195;-76
2022/09/05 05:25:43;;;;;;;4.97;4.47;;;;;;;23.22;95.67;101048.38;4951729;28;20215;-81
2022/09/05 05:28:12;;;;;;;7.85;4.75;;;;;;;22.44;100.00;101044.66;4951453;28;20213;-80
2022/09/05 05:30:41;;;;;;;11.77;4.85;;;;;;;21.83;100.00;101040.34;4954320;28;20710;-77
2022/09/05 05:33:24;;;;;;;17.67;6.78;;;;;;;21.27;100.00;101030.63;4992777;28;20205;-74
2022/09/05 05:35:52;;;;;;;17.45;6.97;;;;;;;21.00;100.00;101029.22;4992369;28;20205;-79
2022/09/05 05:38:28;;;;;;;9.23;4.78;;;;;;;20.53;100.00;101034.16;4990481;28;20205;-78
2022/09/05 05:41:05;;;;;;;7.95;5.30;;;;;;;20.25;100.00;101015.09;4992821;28;20205;-81
2022/09/05 05:43:36;;;;;;;7.53;4.95;;;;;;;20.48;100.00;101033.31;4992550;28;20197;-82
2022/09/05 05:46:04;;;;;;;8.73;5.78;;;;;;;20.53;100.00;101028.88;4990311;28;20275;-81
2022/09/05 05:48:37;;;;;;;4.60;4.20;;;;;;;20.13;100.00;101010.78;4992836;28;20210;-82
2022/09/05 05:51:19;;;;;;;6.78;4.32;;;;;;;19.88;100.00;101025.06;4992566;28;20662;-81
2022/09/05 05:53:54;;;;;;;7.05;4.28;;;;;;;19.87;100.00;101031.19;4992497;28;20692;-81
2022/09/05 05:56:57;;;;;;;5.65;4.53;;;;;;;20.05;100.00;101020.50;4992771;28;20205;-79
2022/09/05 05:59:48;;;;;;;7.50;4.22;;;;;;;19.88;100.00;101022.41;4932606;29;20212;-78
2022/09/05 06:02:37;;;;;;;4.53;4.07;;;;;;;19.75;100.00;101031.31;4932504;29;20207;-78
2022/09/05 06:05:40;;;;;;;4.95;4.00;;;;;;;20.04;100.00;101042.47;4931887;29;20755;-81
2022/09/05 06:08:34;;;;;;;4.82;3.80;;;;;;;20.01;100.00;101031.94;4931888;29;20234;-79
2022/09/05 06:11:36;;;;;;;7.15;4.10;;;;;;;20.31;100.00;101041.38;4875252;29;20202;-76
2022/09/05 06:14:37;;;;;;;6.90;4.15;;;;;;;20.21;100.00;101052.88;4875555;29;20221;-81
2022/09/05 06:17:36;;;;;;;5.10;4.20;;;;;;;20.27;100.00;101050.16;4875464;29;20950;-81
2022/09/05 06:20:43;;;;;;;5.45;4.95;;;;;;;20.37;100.00;101046.59;4875524;29;20206;-81
2022/09/05 06:23:53;;;;;;;5.57;4.55;;;;;;;20.51;100.00;101060.50;4801923;29;20216;-81
2022/09/05 06:26:51;;;;;;;6.88;3.88;;;;;;;20.31;100.00;101054.56;4802241;29;20247;-80
2022/09/05 06:29:34;;;;;;;10.25;4.28;;;;;;;20.44;100.00;101071.97;4801859;29;20371;-82
2022/09/05 06:32:14;;;;;;;6.25;4.13;;;;;;;20.39;100.00;101068.53;4773485;29;20216;-82
2022/09/05 06:35:04;;;;;;;6.93;4.40;;;;;;;20.56;100.00;101063.97;4801660;29;20216;-81
2022/09/05 06:37:42;;;;;;;5.75;3.58;;;;;;;20.68;100.00;101063.84;4875496;29;20264;-81
2022/09/05 06:40:18;;;;;;;5.53;4.28;;;;;;;20.82;100.00;101066.34;4831515;29;20213;-81
2022/09/05 06:43:04;;;;;;;7.00;4.57;;;;;;;20.86;100.00;101078.59;4875114;29;20226;-81
2022/09/05 06:45:44;;;;;;;6.95;4.55;;;;;;;21.10;100.00;101082.72;4875161;29;20225;-78
2022/09/05 06:48:17;;;;;;;6.60;4.30;;;;;;;21.32;100.00;101083.34;4896254;29;20231;-81
2022/09/05 06:51:27;;;;;;;8.38;4.45;;;;;;;21.02;100.00;101013.34;4931422;29;20676;-81
2022/09/05 06:54:08;;;;;;;7.03;4.40;;;;;;;21.48;100.00;101082.25;4931504;29;20207;-81
2022/09/05 06:56:49;;;;;;;4.80;4.35;;;;;;;21.33;100.00;101082.47;4886786;29;20208;-81
2022/09/05 06:59:47;;;;;;;5.55;4.32;;;;;;;21.20;100.00;101073.81;4895636;28;20213;-80
2022/09/05 07:02:21;;;;;;;15.07;4.65;;;;;;;21.45;100.00;101082.28;4990352;28;20197;-79
2022/09/05 07:05:04;;;;;;;4.53;4.03;;;;;;;21.37;100.00;101081.53;4988297;28;20220;-83
2022/09/05 07:07:40;;;;;;;7.25;4.13;;;;;;;21.55;100.00;101087.41;4951804;28;21450;-79
2022/09/05 07:10:17;;;;;;;6.80;4.47;;;;;;;21.62;100.00;101083.81;4971592;28;20217;-82
2022/09/05 07:12:49;;;;;;;6.22;4.75;;;;;;;21.88;100.00;101091.34;4972176;28;20272;-83
2022/09/05 07:15:29;;;;;;;5.03;3.90;;;;;;;21.44;100.00;101099.03;4971770;28;20213;-82
2022/09/05 07:18:07;;;;;;;6.32;3.65;;;;;;;21.58;100.00;101102.38;4975141;28;20205;-82
2022/09/05 07:20:39;;;;;;;5.07;3.97;;;;;;;21.48;100.00;101100.72;4987679;28;20288;-82
2022/09/05 07:23:18;;;;;;;6.45;4.03;;;;;;;21.76;100.00;101089.75;4991262;28;20224;-83
2022/09/05 07:25:49;;;;;;;4.45;3.90;;;;;;;21.72;96.19;101097.75;4991291;28;20201;-83
2022/09/05 07:28:20;;;;;;;5.80;3.70;;;;;;;21.65;96.18;101094.31;4991157;28;20229;-84
2022/09/05 07:30:49;;;;;;;5.50;4.93;;;;;;;21.42;100.00;101096.41;4991341;28;20213;-82
2022/09/05 07:33:19;;;;;;;12.23;4.45;;;;;;;21.36;100.00;101077.16;4991567;28;20197;-83
2022/09/05 07:35:49;;;;;;;4.18;3.75;;;;;;;21.48;100.00;101106.88;4973139;28;20197;-84
2022/09/05 07:38:20;;;;;;;5.65;4.30;;;;;;;21.15;100.00;101086.22;4996283;28;20206;-84
2022/09/05 07:40:53;;;;;;;7.32;4.30;;;;;;;21.55;98.96;101103.25;4998294;28;20272;-84
2022/09/05 07:43:26;;;;;;;8.15;4.97;;;;;;;21.72;100.00;101101.25;4999918;28;20209;-85
2022/09/05 07:46:10;;;;;;;7.15;3.88;;;;;;;21.72;96.97;101109.16;4965821;28;20202;-86
2022/09/05 07:48:41;;;;;;;4.20;3.70;;;;;;;21.93;93.78;101084.28;4978172;28;20237;-82
2022/09/05 07:51:12;;;;;;;4.20;3.90;;;;;;;21.82;93.14;101107.28;4994261;28;20285;-86
2022/09/05 07:53:42;;;;;;;4.50;4.10;;;;;;;21.74;93.16;101110.03;4960202;28;20216;-80
2022/09/05 07:56:10;;;;;;;5.57;4.35;;;;;;;21.74;93.83;101077.47;4994691;28;20206;-83
2022/09/05 07:58:42;;;;;;;5.28;4.10;;;;;;;22.05;93.00;101105.19;4994504;28;20236;-83
2022/09/05 08:01:12;;;;;;;5.35;3.75;;;;;;;22.00;91.86;101107.06;4994555;28;20590;-84
2022/09/05 08:03:42;;;;;;;4.35;3.67;;;;;;;22.08;88.55;101109.59;4994619;28;20225;-83
2022/09/05 08:06:15;;;;;;;4.70;3.40;;;;;;;22.29;87.83;101113.63;4994537;28;20224;-82
2022/09/05 08:08:53;;;;;;;4.65;3.65;;;;;;;22.56;85.17;101095.53;4994562;28;20245;-84
2022/09/05 08:11:24;;;;;;;6.35;3.55;;;;;;;22.57;84.25;101078.78;4994637;28;20605;-84
2022/09/05 08:14:00;;;;;;;8.50;3.45;;;;;;;22.27;84.38;101111.00;4994337;28;20200;-86
2022/09/05 08:16:28;;;;;;;3.63;3.30;;;;;;;22.52;87.27;101107.06;4994644;28;20236;-84
2022/09/05 08:19:11;;;;;;;7.05;3.25;;;;;;;22.40;85.85;101112.53;4994562;28;20575;-83
2022/09/05 08:21:43;;;;;;;4.78;3.70;;;;;;;22.74;88.12;101104.94;4994766;28;20216;-82
2022/09/05 08:24:19;;;;;;;10.85;3.83;;;;;;;22.84;85.26;101106.50;4975939;28;20200;-81
2022/09/05 08:26:49;;;;;;;6.60;4.78;;;;;;;23.11;86.17;101105.97;4994679;28;20645;-83
2022/09/05 08:29:29;;;;;;;10.93;4.10;;;;;;;23.19;83.40;101095.22;4994212;28;20220;-82
2022/09/05 08:32:05;;;;;;;4.25;3.35;;;;;;;23.27;79.61;101105.66;4959730;28;20813;-80
2022/09/05 08:34:39;;;;;;;3.88;3.45;;;;;;;23.29;80.93;101101.22;4994253;28;20203;-80
2022/09/05 08:37:11;;;;;;;4.82;3.17;;;;;;;23.17;78.20;101097.03;4993965;28;20580;-81
2022/09/05 08:39:39;;;;;;;3.67;3.30;;;;;;;23.31;79.05;101094.09;4994133;28;20200;-79
2022/09/05 08:42:23;;;;;;;5.75;3.72;;;;;;;23.48;74.91;101100.81;4994260;28;20207;-81
2022/09/05 08:45:06;;;;;;;3.92;3.22;;;;;;;23.12;75.36;101068.00;4994029;28;20678;-79
2022/09/05 08:47:42;;;;;;;4.20;3.08;;;;;;;23.37;75.88;101104.56;4993880;28;20236;-80
2022/09/05 08:50:24;;;;;;;3.30;2.97;;;;;;;23.59;71.40;101100.56;4994088;28;20212;-82
2022/09/05 08:52:58;;;;;;;4.65;2.80;;;;;;;23.55;68.83;101051.22;4993792;28;20201;-80
2022/09/05 08:55:35;;;;;;;2.88;2.67;;;;;;;23.51;68.92;101098.09;4993811;28;20213;-82
2022/09/05 08:58:27;;;;;;;3.45;3.08;;;;;;;23.54;67.81;101090.06;4992504;28;20201;-80
2022/09/05 09:01:05;;;;;;;2.83;2.63;;;;;;;23.35;67.75;101091.38;4994171;28;20228;-86
2022/09/05 09:03:41;;;;;;;2.50;2.30;;;;;;;23.02;72.36;101092.03;4995458;28;20293;-87
2022/09/05 09:06:49;;;;;;;2.90;2.60;;;;;;;23.13;70.71;101082.13;4975439;28;20209;-81
2022/09/05 09:09:20;;;;;;;3.25;2.45;;;;;;;23.17;71.06;101087.31;4959317;28;20213;-85
2022/09/05 09:11:53;;;;;;;4.68;2.85;;;;;;;22.97;72.58;101088.63;4993449;28;20206;-83
2022/09/05 09:14:43;;;;;;;4.05;3.25;;;;;;;23.19;70.05;101079.34;4993468;28;20214;-82
2022/09/05 09:17:23;;;;;;;3.00;2.70;;;;;;;23.35;69.63;101067.53;4993585;28;20205;-82
2022/09/05 09:20:03;;;;;;;3.05;2.60;;;;;;;23.49;69.50;101076.09;4993266;28;20677;-82
2022/09/05 09:22:41;;;;;;;5.18;2.80;;;;;;;23.73;70.69;101079.94;4993163;28;20252;-82
2022/09/05 09:25:13;;;;;;;3.47;2.92;;;;;;;23.75;69.08;101074.63;4993288;28;20201;-85
2022/09/05 09:27:56;;;;;;;4.45;2.55;;;;;;;23.89;68.85;101081.34;4993307;28;20240;-86
2022/09/05 09:30:25;;;;;;;4.60;3.28;;;;;;;23.74;68.04;101065.81;4930662;28;20212;-81
2022/09/05 09:32:57;;;;;;;2.30;2.20;;;;;;;23.79;68.72;101087.78;4993211;28;20666;-77
2022/09/05 09:35:40;;;;;;;4.45;2.75;;;;;;;24.05;64.00;101087.13;4992881;28;20666;-83
2022/09/05 09:38:22;;;;;;;3.45;2.85;;;;;;;24.10;62.70;101079.94;4961346;28;20208;-78
2022/09/05 09:41:19;;;;;;;3.78;2.70;;;;;;;24.35;62.97;101078.47;4930245;28;20232;-81
2022/09/05 09:44:06;;;;;;;3.00;2.70;;;;;;;24.58;61.55;101088.47;4992574;28;20208;-83
2022/09/05 09:46:40;;;;;;;2.80;2.50;;;;;;;24.58;62.13;101086.69;4913559;29;20215;-80
2022/09/05 09:49:25;;;;;;;3.35;2.58;;;;;;;24.38;62.68;101074.84;4900152;29;20291;-81
2022/09/05 09:52:20;;;;;;;6.78;3.58;;;;;;;24.50;63.16;101080.72;4913484;29;20208;-83
2022/09/05 09:55:13;;;;;;;2.58;2.35;;;;;;;23.97;66.00;101082.00;4913708;29;20201;-84
2022/09/05 09:58:19;;;;;;;2.63;2.42;;;;;;;24.26;63.34;101073.38;4857177;29;20206;-83
2022/09/05 10:00:51;;;;;;;2.78;2.58;;;;;;;24.53;65.21;101071.81;4857403;29;20202;-82
2022/09/05 10:03:49;;;;;;;3.60;2.63;;;;;;;24.37;63.08;101081.06;4857259;29;20301;-82
2022/09/05 10:06:52;;;;;;;5.18;2.88;;;;;;;24.58;63.79;101061.94;4856569;29;20702;-84
2022/09/05 10:09:31;;;;;;;6.97;2.97;;;;;;;24.71;62.11;101073.97;4857097;29;20233;-82
2022/09/05 10:12:28;;;;;;;3.28;2.55;;;;;;;24.53;62.89;101071.81;4857092;29;20214;-80
2022/09/05 10:15:00;;;;;;;3.22;2.78;;;;;;;24.76;62.34;101069.41;4838788;29;20203;-82
2022/09/05 10:17:53;;;;;;;5.18;2.58;;;;;;;24.96;59.91;101071.53;4838471;29;20328;-81
2022/09/05 10:20:38;;;;;;;3.47;2.80;;;;;;;25.25;59.88;101068.94;4838480;29;20562;-81
2022/09/05 10:23:25;;;;;;;2.83;2.63;;;;;;;25.08;59.28;101071.16;4858430;29;20203;-79
2022/09/05 10:26:15;;;;;;;3.30;3.00;;;;;;;24.80;58.47;101041.88;4931956;29;20207;-82
2022/09/05 10:28:54;;;;;;;3.30;2.83;;;;;;;25.22;59.41;101052.22;4875057;29;20260;-80
2022/09/05 10:31:23;;;;;;;6.60;2.70;;;;;;;25.02;58.86;101045.69;4875522;29;20213;-83
2022/09/05 10:33:57;;;;;;;4.03;2.80;;;;;;;24.72;59.13;101075.72;4876232;29;20213;-83
2022/09/05 10:36:27;;;;;;;5.15;2.97;;;;;;;24.74;59.03;101070.34;4932015;29;20203;-76
2022/09/05 10:39:06;;;;;;;2.67;2.47;;;;;;;24.84;58.66;101070.09;4931733;29;20230;-80
2022/09/05 10:41:45;;;;;;;2.80;2.45;;;;;;;25.03;58.36;101068.69;4931421;29;20207;-79
2022/09/05 10:44:14;;;;;;;2.58;2.30;;;;;;;24.62;58.84;101037.06;4931631;29;20207;-79
2022/09/05 10:46:57;;;;;;;3.15;2.85;;;;;;;24.90;58.48;101048.69;4931393;29;20315;-81
2022/09/05 10:49:27;;;;;;;5.00;2.63;;;;;;;24.64;58.24;101049.41;4931301;29;20409;-81
2022/09/05 10:52:01;;;;;;;7.97;2.65;;;;;;;24.63;59.18;101017.59;4931501;29;20208;-79
2022/09/05 10:54:39;;;;;;;4.97;3.30;;;;;;;24.97;59.66;101047.59;4931528;29;20334;-79
2022/09/05 10:57:21;;;;;;;2.55;2.35;;;;;;;24.86;57.95;101036.44;4931606;29;20206;-79
2022/09/05 11:00:26;;;;;;;3.08;2.70;;;;;;;25.09;57.86;101022.50;4931618;29;20195;-79
2022/09/05 11:02:57;;;;;;;3.72;2.97;;;;;;;24.81;58.22;101035.66;4931169;29;20207;-80
2022/09/05 11:05:30;;;;;;;5.03;2.90;;;;;;;24.90;59.45;100998.25;4941528;28;20228;-81
2022/09/05 11:08:07;;;;;;;3.00;2.55;;;;;;;25.32;58.18;101030.66;4971721;28;20722;-81
2022/09/05 11:10:44;;;;;;;7.28;2.90;;;;;;;25.09;59.58;101015.41;4972104;28;20231;-78
2022/09/05 11:13:22;;;;;;;3.53;2.67;;;;;;;25.32;58.88;101009.41;4972208;28;20206;-77
2022/09/05 11:16:09;;;;;;;5.28;2.90;;;;;;;25.83;60.09;101008.69;4972267;28;20321;-80
2022/09/05 11:18:55;;;;;;;3.10;2.80;;;;;;;25.94;57.14;100996.78;4973387;28;20206;-79
2022/09/05 11:21:27;;;;;;;3.30;2.50;;;;;;;25.72;58.04;100979.78;4935188;29;20207;-80
2022/09/05 11:23:56;;;;;;;2.50;2.40;;;;;;;25.27;56.52;100997.16;4935317;29;20210;-74
2022/09/05 11:26:42;;;;;;;3.80;2.58;;;;;;;25.27;56.99;101000.69;4935085;29;20822;-76
2022/09/05 11:29:12;;;;;;;2.92;2.60;;;;;;;25.44;57.54;100979.78;4935238;29;20298;-76
2022/09/05 11:31:51;;;;;;;4.55;2.50;;;;;;;25.50;56.03;100978.75;4935068;29;20218;-76
2022/09/05 11:34:56;;;;;;;3.53;2.67;;;;;;;25.63;56.24;100988.97;4935036;29;20755;-76
2022/09/05 11:37:40;;;;;;;2.28;2.05;;;;;;;25.28;59.91;100985.66;4935183;29;20211;-76
2022/09/05 11:40:32;;;;;;;3.65;2.30;;;;;;;25.61;59.12;101000.56;4935057;29;20206;-76
2022/09/05 11:43:32;;;;;;;2.90;2.70;;;;;;;25.14;57.64;100989.59;4934863;29;20586;-76
2022/09/05 11:46:42;;;;;;;2.45;2.30;;;;;;;25.30;58.93;100965.22;4878275;29;20209;-76
2022/09/05 11:49:31;;;;;;;5.00;2.60;;;;;;;25.10;58.09;100987.94;4804415;29;20314;-75
2022/09/05 11:52:44;;;;;;;2.80;2.58;;;;;;;25.27;59.34;100987.44;4804966;29;20601;-76
2022/09/05 11:55:32;;;;;;;2.92;2.72;;;;;;;25.43;56.57;100977.22;4751092;30;20210;-76
2022/09/05 11:58:26;;;;;;;2.97;2.78;;;;;;;25.36;57.30;100975.66;4759477;29;20216;-75
2022/09/05 12:01:05;;;;;;;3.33;2.80;;;;;;;25.53;57.72;100968.06;4786824;29;20224;-76
2022/09/05 12:04:00;;;;;;;4.68;2.80;;;;;;;25.46;57.83;100971.78;4786410;29;20216;-77
2022/09/05 12:07:04;;;;;;;2.80;2.60;;;;;;;25.77;56.80;100969.03;4789001;29;20208;-77
2022/09/05 12:09:48;;;;;;;4.75;2.70;;;;;;;25.83;55.99;100958.19;4804684;29;20238;-76
2022/09/05 12:12:25;;;;;;;2.90;2.70;;;;;;;25.95;58.31;100965.75;4759529;29;20192;-76
2022/09/05 12:15:03;;;;;;;4.40;3.13;;;;;;;25.64;55.81;100961.47;4774255;29;20202;-77
2022/09/05 12:17:38;;;;;;;3.00;2.80;;;;;;;25.57;55.82;100959.06;4804450;29;20679;-76
2022/09/05 12:20:14;;;;;;;3.40;2.83;;;;;;;25.77;56.21;100956.63;4804372;29;20222;-77
2022/09/05 12:22:52;;;;;;;4.63;3.00;;;;;;;25.86;54.70;100948.34;4817207;29;20210;-77
2022/09/05 12:25:25;;;;;;;4.15;2.60;;;;;;;25.80;55.30;100956.50;4867110;29;20213;-77